sensor_id;sensor_type;location;lat;lon;timestamp;P1;durP1;ratioP1;P2;durP2;ratioP2
41861;SDS011;27537;57.134;-2.136;2022-12-18T00:02:12;6.78;;;1.98;;
41861;SDS011;27537;57.134;-2.136;2022-12-18T00:04:39;3.92;;;1.75;;
41861;SDS011;27537;57.134;-2.136;2022-12-18T00:07:06;5.68;;;2.17;;
41861;SDS011;27537;57.134;-2.136;2022-12-18T00:09:32;5.60;;;1.90;;
41861;SDS011;27537;57.134;-2.136;2022-12-18T00:12:05;9.20;;;3.80;;
41861;SDS011;27537;57.134;-2.136;2022-12-18T00:14:41;6.38;;;2.38;;
41861;SDS011;27537;57.134;-2.136;2022-12-18T00:17:08;5.22;;;2.10;;
41861;SDS011;27537;57.134;-2.136;2022-12-18T00:19:35;6.22;;;2.20;;
41861;SDS011;27537;57.134;-2.136;2022-12-18T00:22:02;8.82;;;2.55;;
41861;SDS011;27537;57.134;-2.136;2022-12-18T00:24:29;6.05;;;2.28;;
41861;SDS011;27537;57.134;-2.136;2022-12-18T00:26:55;11.55;;;3.58;;
41861;SDS011;27537;57.134;-2.136;2022-12-18T00:29:22;11.05;;;3.13;;
41861;SDS011;27537;57.134;-2.136;2022-12-18T00:31:48;10.63;;;3.47;;
41861;SDS011;27537;57.134;-2.136;2022-12-18T00:34:15;9.02;;;3.65;;
41861;SDS011;27537;57.134;-2.136;2022-12-18T00:36:42;7.35;;;2.75;;
41861;SDS011;27537;57.134;-2.136;2022-12-18T00:39:09;15.30;;;6.22;;
41861;SDS011;27537;57.134;-2.136;2022-12-18T00:41:37;10.70;;;4.10;;
41861;SDS011;27537;57.134;-2.136;2022-12-18T00:44:22;9.80;;;3.35;;
41861;SDS011;27537;57.134;-2.136;2022-12-18T00:46:49;12.48;;;4.13;;
41861;SDS011;27537;57.134;-2.136;2022-12-18T00:49:16;13.32;;;5.65;;
41861;SDS011;27537;57.134;-2.136;2022-12-18T00:51:45;11.45;;;4.53;;
41861;SDS011;27537;57.134;-2.136;2022-12-18T00:54:12;12.35;;;4.85;;
41861;SDS011;27537;57.134;-2.136;2022-12-18T00:56:39;12.30;;;4.68;;
41861;SDS011;27537;57.134;-2.136;2022-12-18T00:59:14;9.70;;;4.13;;
41861;SDS011;27537;57.134;-2.136;2022-12-18T01:01:41;9.68;;;3.53;;
41861;SDS011;27537;57.134;-2.136;2022-12-18T01:04:09;8.45;;;3.45;;
41861;SDS011;27537;57.134;-2.136;2022-12-18T01:06:35;10.27;;;4.07;;
41861;SDS011;27537;57.134;-2.136;2022-12-18T01:09:02;14.50;;;6.15;;
41861;SDS011;27537;57.134;-2.136;2022-12-18T01:11:29;15.07;;;4.85;;
41861;SDS011;27537;57.134;-2.136;2022-12-18T01:13:56;12.38;;;4.85;;
41861;SDS011;27537;57.134;-2.136;2022-12-18T01:16:23;10.38;;;4.03;;
41861;SDS011;27537;57.134;-2.136;2022-12-18T01:18:53;11.55;;;4.32;;
41861;SDS011;27537;57.134;-2.136;2022-12-18T01:21:21;9.75;;;4.18;;
41861;SDS011;27537;57.134;-2.136;2022-12-18T01:23:53;10.82;;;3.92;;
41861;SDS011;27537;57.134;-2.136;2022-12-18T01:26:21;11.25;;;4.60;;
41861;SDS011;27537;57.134;-2.136;2022-12-18T01:28:48;10.98;;;3.58;;
41861;SDS011;27537;57.134;-2.136;2022-12-18T01:31:19;10.07;;;2.90;;
41861;SDS011;27537;57.134;-2.136;2022-12-18T01:33:48;9.27;;;3.42;;
41861;SDS011;27537;57.134;-2.136;2022-12-18T01:36:18;8.32;;;3.28;;
41861;SDS011;27537;57.134;-2.136;2022-12-18T01:38:45;8.50;;;2.92;;
41861;SDS011;27537;57.134;-2.136;2022-12-18T01:41:13;8.68;;;3.33;;
41861;SDS011;27537;57.134;-2.136;2022-12-18T01:43:45;10.00;;;4.07;;
41861;SDS011;27537;57.134;-2.136;2022-12-18T01:46:12;9.65;;;3.70;;
41861;SDS011;27537;57.134;-2.136;2022-12-18T01:48:40;12.02;;;4.28;;
41861;SDS011;27537;57.134;-2.136;2022-12-18T01:51:09;7.22;;;3.08;;
41861;SDS011;27537;57.134;-2.136;2022-12-18T01:53:38;9.80;;;3.53;;
41861;SDS011;27537;57.134;-2.136;2022-12-18T01:56:07;10.93;;;4.07;;
41861;SDS011;27537;57.134;-2.136;2022-12-18T01:58:39;9.52;;;3.50;;
41861;SDS011;27537;57.134;-2.136;2022-12-18T02:01:07;8.25;;;3.97;;
41861;SDS011;27537;57.134;-2.136;2022-12-18T02:03:35;7.22;;;2.90;;
41861;SDS011;27537;57.134;-2.136;2022-12-18T02:11:10;9.82;;;4.05;;
41861;SDS011;27537;57.134;-2.136;2022-12-18T02:16:43;9.73;;;4.30;;
41861;SDS011;27537;57.134;-2.136;2022-12-18T02:24:44;7.82;;;3.00;;
41861;SDS011;27537;57.134;-2.136;2022-12-18T02:27:26;7.88;;;3.25;;
41861;SDS011;27537;57.134;-2.136;2022-12-18T02:29:56;6.30;;;2.63;;
41861;SDS011;27537;57.134;-2.136;2022-12-18T02:32:26;7.15;;;2.47;;
41861;SDS011;27537;57.134;-2.136;2022-12-18T02:34:57;6.20;;;2.30;;
41861;SDS011;27537;57.134;-2.136;2022-12-18T02:37:25;10.45;;;3.40;;
41861;SDS011;27537;57.134;-2.136;2022-12-18T02:39:54;6.25;;;2.53;;
41861;SDS011;27537;57.134;-2.136;2022-12-18T02:42:23;9.48;;;2.55;;
41861;SDS011;27537;57.134;-2.136;2022-12-18T02:44:51;4.72;;;2.25;;
41861;SDS011;27537;57.134;-2.136;2022-12-18T02:47:19;6.28;;;2.42;;
41861;SDS011;27537;57.134;-2.136;2022-12-18T03:00:45;3.78;;;1.65;;
41861;SDS011;27537;57.134;-2.136;2022-12-18T03:03:24;4.40;;;1.90;;
41861;SDS011;27537;57.134;-2.136;2022-12-18T03:05:57;5.50;;;1.70;;
41861;SDS011;27537;57.134;-2.136;2022-12-18T03:08:35;2.97;;;1.52;;
41861;SDS011;27537;57.134;-2.136;2022-12-18T03:11:08;3.05;;;1.50;;
41861;SDS011;27537;57.134;-2.136;2022-12-18T03:13:37;4.03;;;2.00;;
41861;SDS011;27537;57.134;-2.136;2022-12-18T03:16:09;10.63;;;3.33;;
41861;SDS011;27537;57.134;-2.136;2022-12-18T03:18:41;6.88;;;2.58;;
41861;SDS011;27537;57.134;-2.136;2022-12-18T03:21:12;6.20;;;2.25;;
41861;SDS011;27537;57.134;-2.136;2022-12-18T03:23:45;5.57;;;2.05;;
41861;SDS011;27537;57.134;-2.136;2022-12-18T03:26:16;7.47;;;2.58;;
41861;SDS011;27537;57.134;-2.136;2022-12-18T03:28:48;7.53;;;2.70;;
41861;SDS011;27537;57.134;-2.136;2022-12-18T03:31:20;7.15;;;2.22;;
41861;SDS011;27537;57.134;-2.136;2022-12-18T03:33:54;9.93;;;2.97;;
41861;SDS011;27537;57.134;-2.136;2022-12-18T03:36:23;8.25;;;3.03;;
41861;SDS011;27537;57.134;-2.136;2022-12-18T03:38:50;8.23;;;3.45;;
41861;SDS011;27537;57.134;-2.136;2022-12-18T03:41:19;7.68;;;3.25;;
41861;SDS011;27537;57.134;-2.136;2022-12-18T03:44:05;11.77;;;3.40;;
41861;SDS011;27537;57.134;-2.136;2022-12-18T03:55:35;7.25;;;3.28;;
41861;SDS011;27537;57.134;-2.136;2022-12-18T03:58:03;11.95;;;4.85;;
41861;SDS011;27537;57.134;-2.136;2022-12-18T04:00:32;8.90;;;3.15;;
41861;SDS011;27537;57.134;-2.136;2022-12-18T04:03:00;8.75;;;3.97;;
41861;SDS011;27537;57.134;-2.136;2022-12-18T04:05:30;11.98;;;4.22;;
41861;SDS011;27537;57.134;-2.136;2022-12-18T04:08:00;14.07;;;4.90;;
41861;SDS011;27537;57.134;-2.136;2022-12-18T04:10:28;10.05;;;4.05;;
41861;SDS011;27537;57.134;-2.136;2022-12-18T04:12:56;11.77;;;4.13;;
41861;SDS011;27537;57.134;-2.136;2022-12-18T04:15:23;8.93;;;3.60;;
41861;SDS011;27537;57.134;-2.136;2022-12-18T04:17:51;5.43;;;2.40;;
41861;SDS011;27537;57.134;-2.136;2022-12-18T04:20:17;9.57;;;3.50;;
41861;SDS011;27537;57.134;-2.136;2022-12-18T04:22:44;9.48;;;3.05;;
41861;SDS011;27537;57.134;-2.136;2022-12-18T04:25:11;8.98;;;3.17;;
41861;SDS011;27537;57.134;-2.136;2022-12-18T04:27:38;6.85;;;2.30;;
41861;SDS011;27537;57.134;-2.136;2022-12-18T04:30:05;9.90;;;4.90;;
41861;SDS011;27537;57.134;-2.136;2022-12-18T04:32:33;9.98;;;5.15;;
41861;SDS011;27537;57.134;-2.136;2022-12-18T04:35:01;6.43;;;2.55;;
41861;SDS011;27537;57.134;-2.136;2022-12-18T04:37:28;7.65;;;2.55;;
41861;SDS011;27537;57.134;-2.136;2022-12-18T04:39:54;8.48;;;2.85;;
41861;SDS011;27537;57.134;-2.136;2022-12-18T04:42:21;9.50;;;3.47;;
41861;SDS011;27537;57.134;-2.136;2022-12-18T04:44:48;7.97;;;2.78;;
41861;SDS011;27537;57.134;-2.136;2022-12-18T04:47:15;8.32;;;3.05;;
41861;SDS011;27537;57.134;-2.136;2022-12-18T04:49:41;7.60;;;2.85;;
41861;SDS011;27537;57.134;-2.136;2022-12-18T04:52:08;6.60;;;2.65;;
41861;SDS011;27537;57.134;-2.136;2022-12-18T04:54:35;7.68;;;3.22;;
41861;SDS011;27537;57.134;-2.136;2022-12-18T04:57:02;6.43;;;2.40;;
41861;SDS011;27537;57.134;-2.136;2022-12-18T04:59:28;7.45;;;2.40;;
41861;SDS011;27537;57.134;-2.136;2022-12-18T05:01:55;6.93;;;2.50;;
41861;SDS011;27537;57.134;-2.136;2022-12-18T05:04:22;6.53;;;1.92;;
41861;SDS011;27537;57.134;-2.136;2022-12-18T05:06:49;4.72;;;2.03;;
41861;SDS011;27537;57.134;-2.136;2022-12-18T05:09:16;6.97;;;2.40;;
41861;SDS011;27537;57.134;-2.136;2022-12-18T05:11:44;4.45;;;1.90;;
41861;SDS011;27537;57.134;-2.136;2022-12-18T05:14:11;4.80;;;1.80;;
41861;SDS011;27537;57.134;-2.136;2022-12-18T05:16:38;6.90;;;2.00;;
41861;SDS011;27537;57.134;-2.136;2022-12-18T05:19:04;4.97;;;2.00;;
41861;SDS011;27537;57.134;-2.136;2022-12-18T05:21:31;5.43;;;1.75;;
41861;SDS011;27537;57.134;-2.136;2022-12-18T05:23:58;7.97;;;2.10;;
41861;SDS011;27537;57.134;-2.136;2022-12-18T05:26:25;4.85;;;1.40;;
41861;SDS011;27537;57.134;-2.136;2022-12-18T05:28:52;2.67;;;1.50;;
41861;SDS011;27537;57.134;-2.136;2022-12-18T05:31:19;5.60;;;1.90;;
41861;SDS011;27537;57.134;-2.136;2022-12-18T05:33:45;3.47;;;1.63;;
41861;SDS011;27537;57.134;-2.136;2022-12-18T05:36:12;2.60;;;1.50;;
41861;SDS011;27537;57.134;-2.136;2022-12-18T05:38:39;3.03;;;1.50;;
41861;SDS011;27537;57.134;-2.136;2022-12-18T05:41:06;3.33;;;1.65;;
41861;SDS011;27537;57.134;-2.136;2022-12-18T05:43:35;3.38;;;1.55;;
41861;SDS011;27537;57.134;-2.136;2022-12-18T05:46:07;5.43;;;1.75;;
41861;SDS011;27537;57.134;-2.136;2022-12-18T05:48:37;3.15;;;1.73;;
41861;SDS011;27537;57.134;-2.136;2022-12-18T05:51:05;4.20;;;1.65;;
41861;SDS011;27537;57.134;-2.136;2022-12-18T05:53:37;4.20;;;1.70;;
41861;SDS011;27537;57.134;-2.136;2022-12-18T05:56:12;3.60;;;1.70;;
41861;SDS011;27537;57.134;-2.136;2022-12-18T05:58:41;4.20;;;1.80;;
41861;SDS011;27537;57.134;-2.136;2022-12-18T06:01:12;3.58;;;1.58;;
41861;SDS011;27537;57.134;-2.136;2022-12-18T06:03:42;3.83;;;1.85;;
41861;SDS011;27537;57.134;-2.136;2022-12-18T06:06:21;6.22;;;2.00;;
41861;SDS011;27537;57.134;-2.136;2022-12-18T06:08:54;4.80;;;2.08;;
41861;SDS011;27537;57.134;-2.136;2022-12-18T06:11:22;5.32;;;2.08;;
41861;SDS011;27537;57.134;-2.136;2022-12-18T06:13:51;5.38;;;1.88;;
41861;SDS011;27537;57.134;-2.136;2022-12-18T06:16:24;4.35;;;1.90;;
41861;SDS011;27537;57.134;-2.136;2022-12-18T06:18:52;5.32;;;1.77;;
41861;SDS011;27537;57.134;-2.136;2022-12-18T06:21:19;4.13;;;1.67;;
41861;SDS011;27537;57.134;-2.136;2022-12-18T06:23:46;5.07;;;1.98;;
41861;SDS011;27537;57.134;-2.136;2022-12-18T06:26:16;5.60;;;2.10;;
41861;SDS011;27537;57.134;-2.136;2022-12-18T06:28:43;4.65;;;2.10;;
41861;SDS011;27537;57.134;-2.136;2022-12-18T06:31:09;3.95;;;1.80;;
41861;SDS011;27537;57.134;-2.136;2022-12-18T06:33:37;5.60;;;2.00;;
41861;SDS011;27537;57.134;-2.136;2022-12-18T06:38:34;4.20;;;2.10;;
41861;SDS011;27537;57.134;-2.136;2022-12-18T06:41:09;4.28;;;1.67;;
41861;SDS011;27537;57.134;-2.136;2022-12-18T06:43:37;6.10;;;2.05;;
41861;SDS011;27537;57.134;-2.136;2022-12-18T06:46:05;6.03;;;2.30;;
41861;SDS011;27537;57.134;-2.136;2022-12-18T06:48:32;4.43;;;2.13;;
41861;SDS011;27537;57.134;-2.136;2022-12-18T06:51:02;5.97;;;2.17;;
41861;SDS011;27537;57.134;-2.136;2022-12-18T06:53:31;4.95;;;2.05;;
41861;SDS011;27537;57.134;-2.136;2022-12-18T06:56:00;6.10;;;2.65;;
41861;SDS011;27537;57.134;-2.136;2022-12-18T06:58:36;7.03;;;2.60;;
41861;SDS011;27537;57.134;-2.136;2022-12-18T07:01:03;5.57;;;2.30;;
41861;SDS011;27537;57.134;-2.136;2022-12-18T07:03:36;6.65;;;2.47;;
41861;SDS011;27537;57.134;-2.136;2022-12-18T07:06:05;7.17;;;2.63;;
41861;SDS011;27537;57.134;-2.136;2022-12-18T07:08:32;6.28;;;2.78;;
41861;SDS011;27537;57.134;-2.136;2022-12-18T07:11:02;7.07;;;2.50;;
41861;SDS011;27537;57.134;-2.136;2022-12-18T07:13:32;7.30;;;2.85;;
41861;SDS011;27537;57.134;-2.136;2022-12-18T07:16:03;6.65;;;2.55;;
41861;SDS011;27537;57.134;-2.136;2022-12-18T07:18:49;7.18;;;2.75;;
41861;SDS011;27537;57.134;-2.136;2022-12-18T07:21:17;8.15;;;3.42;;
41861;SDS011;27537;57.134;-2.136;2022-12-18T07:23:45;6.82;;;2.63;;
41861;SDS011;27537;57.134;-2.136;2022-12-18T07:26:15;7.13;;;2.83;;
41861;SDS011;27537;57.134;-2.136;2022-12-18T07:28:45;10.45;;;3.50;;
41861;SDS011;27537;57.134;-2.136;2022-12-18T07:31:15;8.98;;;3.78;;
41861;SDS011;27537;57.134;-2.136;2022-12-18T07:33:43;7.60;;;2.65;;
41861;SDS011;27537;57.134;-2.136;2022-12-18T07:36:11;7.53;;;2.55;;
41861;SDS011;27537;57.134;-2.136;2022-12-18T07:38:39;8.02;;;3.35;;
41861;SDS011;27537;57.134;-2.136;2022-12-18T07:41:10;11.10;;;4.30;;
41861;SDS011;27537;57.134;-2.136;2022-12-18T07:43:39;9.55;;;3.35;;
41861;SDS011;27537;57.134;-2.136;2022-12-18T07:46:08;9.55;;;3.53;;
41861;SDS011;27537;57.134;-2.136;2022-12-18T07:48:38;11.20;;;3.67;;
41861;SDS011;27537;57.134;-2.136;2022-12-18T07:51:05;7.78;;;2.85;;
41861;SDS011;27537;57.134;-2.136;2022-12-18T07:53:33;6.38;;;2.47;;
41861;SDS011;27537;57.134;-2.136;2022-12-18T07:56:02;7.78;;;3.13;;
41861;SDS011;27537;57.134;-2.136;2022-12-18T07:58:51;8.85;;;3.88;;
41861;SDS011;27537;57.134;-2.136;2022-12-18T08:01:18;8.85;;;3.78;;
41861;SDS011;27537;57.134;-2.136;2022-12-18T08:03:46;13.10;;;5.82;;
41861;SDS011;27537;57.134;-2.136;2022-12-18T08:06:13;16.73;;;6.82;;
41861;SDS011;27537;57.134;-2.136;2022-12-18T08:08:40;9.07;;;3.97;;
41861;SDS011;27537;57.134;-2.136;2022-12-18T08:11:08;8.27;;;3.15;;
41861;SDS011;27537;57.134;-2.136;2022-12-18T08:13:38;10.80;;;4.32;;
41861;SDS011;27537;57.134;-2.136;2022-12-18T08:16:09;8.57;;;3.13;;
41861;SDS011;27537;57.134;-2.136;2022-12-18T08:18:36;8.20;;;3.20;;
41861;SDS011;27537;57.134;-2.136;2022-12-18T08:21:07;7.65;;;2.95;;
41861;SDS011;27537;57.134;-2.136;2022-12-18T08:23:38;5.72;;;2.50;;
41861;SDS011;27537;57.134;-2.136;2022-12-18T08:26:08;8.38;;;3.35;;
41861;SDS011;27537;57.134;-2.136;2022-12-18T08:28:39;7.50;;;3.03;;
41861;SDS011;27537;57.134;-2.136;2022-12-18T08:31:07;10.27;;;4.30;;
41861;SDS011;27537;57.134;-2.136;2022-12-18T08:33:35;9.77;;;4.15;;
41861;SDS011;27537;57.134;-2.136;2022-12-18T08:36:04;9.75;;;4.28;;
41861;SDS011;27537;57.134;-2.136;2022-12-18T08:38:32;9.32;;;3.45;;
41861;SDS011;27537;57.134;-2.136;2022-12-18T08:40:59;10.25;;;3.97;;
41861;SDS011;27537;57.134;-2.136;2022-12-18T08:43:30;10.82;;;3.80;;
41861;SDS011;27537;57.134;-2.136;2022-12-18T08:46:15;10.55;;;4.13;;
41861;SDS011;27537;57.134;-2.136;2022-12-18T08:48:47;9.57;;;3.90;;
41861;SDS011;27537;57.134;-2.136;2022-12-18T08:51:18;8.38;;;3.53;;
41861;SDS011;27537;57.134;-2.136;2022-12-18T08:53:46;17.27;;;6.75;;
41861;SDS011;27537;57.134;-2.136;2022-12-18T08:56:14;12.10;;;5.15;;
41861;SDS011;27537;57.134;-2.136;2022-12-18T08:58:42;7.32;;;3.20;;
41861;SDS011;27537;57.134;-2.136;2022-12-18T09:01:09;9.45;;;4.38;;
41861;SDS011;27537;57.134;-2.136;2022-12-18T09:03:43;7.97;;;3.40;;
41861;SDS011;27537;57.134;-2.136;2022-12-18T09:06:13;10.38;;;5.18;;
41861;SDS011;27537;57.134;-2.136;2022-12-18T09:08:41;12.43;;;5.72;;
41861;SDS011;27537;57.134;-2.136;2022-12-18T09:11:19;10.45;;;3.80;;
41861;SDS011;27537;57.134;-2.136;2022-12-18T09:13:50;9.20;;;3.63;;
41861;SDS011;27537;57.134;-2.136;2022-12-18T09:16:24;7.78;;;3.30;;
41861;SDS011;27537;57.134;-2.136;2022-12-18T09:18:58;6.10;;;2.40;;
41861;SDS011;27537;57.134;-2.136;2022-12-18T09:21:27;7.57;;;2.75;;
41861;SDS011;27537;57.134;-2.136;2022-12-18T09:24:02;8.60;;;3.10;;
41861;SDS011;27537;57.134;-2.136;2022-12-18T09:26:34;7.50;;;2.72;;
41861;SDS011;27537;57.134;-2.136;2022-12-18T09:29:05;8.45;;;3.63;;
41861;SDS011;27537;57.134;-2.136;2022-12-18T09:31:36;6.43;;;2.67;;
41861;SDS011;27537;57.134;-2.136;2022-12-18T09:34:07;7.55;;;3.03;;
41861;SDS011;27537;57.134;-2.136;2022-12-18T09:36:34;7.10;;;2.53;;
41861;SDS011;27537;57.134;-2.136;2022-12-18T09:39:02;8.38;;;2.97;;
41861;SDS011;27537;57.134;-2.136;2022-12-18T09:49:25;19.10;;;4.43;;
41861;SDS011;27537;57.134;-2.136;2022-12-18T09:52:05;12.68;;;5.38;;
41861;SDS011;27537;57.134;-2.136;2022-12-18T09:54:39;8.45;;;3.17;;
41861;SDS011;27537;57.134;-2.136;2022-12-18T09:57:18;10.82;;;2.90;;
41861;SDS011;27537;57.134;-2.136;2022-12-18T09:59:53;15.45;;;4.10;;
41861;SDS011;27537;57.134;-2.136;2022-12-18T10:02:26;12.35;;;4.18;;
41861;SDS011;27537;57.134;-2.136;2022-12-18T10:10:23;14.07;;;4.88;;
41861;SDS011;27537;57.134;-2.136;2022-12-18T10:13:21;13.25;;;5.72;;
41861;SDS011;27537;57.134;-2.136;2022-12-18T10:18:57;12.32;;;4.65;;
41861;SDS011;27537;57.134;-2.136;2022-12-18T10:24:52;18.15;;;5.20;;
41861;SDS011;27537;57.134;-2.136;2022-12-18T10:27:27;16.25;;;5.28;;
41861;SDS011;27537;57.134;-2.136;2022-12-18T10:29:56;13.63;;;5.03;;
41861;SDS011;27537;57.134;-2.136;2022-12-18T10:32:28;15.20;;;5.25;;
41861;SDS011;27537;57.134;-2.136;2022-12-18T10:34:57;17.63;;;4.97;;
41861;SDS011;27537;57.134;-2.136;2022-12-18T10:37:28;15.27;;;4.28;;
41861;SDS011;27537;57.134;-2.136;2022-12-18T10:40:15;10.85;;;4.90;;
41861;SDS011;27537;57.134;-2.136;2022-12-18T10:43:01;19.17;;;4.63;;
41861;SDS011;27537;57.134;-2.136;2022-12-18T10:45:30;9.18;;;3.58;;
41861;SDS011;27537;57.134;-2.136;2022-12-18T10:48:00;20.92;;;4.40;;
41861;SDS011;27537;57.134;-2.136;2022-12-18T10:50:34;11.75;;;3.10;;
41861;SDS011;27537;57.134;-2.136;2022-12-18T10:53:24;16.50;;;4.55;;
41861;SDS011;27537;57.134;-2.136;2022-12-18T10:55:54;16.90;;;4.72;;
41861;SDS011;27537;57.134;-2.136;2022-12-18T10:58:26;13.18;;;3.90;;
41861;SDS011;27537;57.134;-2.136;2022-12-18T11:03:45;20.65;;;4.50;;
41861;SDS011;27537;57.134;-2.136;2022-12-18T11:06:27;15.25;;;3.65;;
41861;SDS011;27537;57.134;-2.136;2022-12-18T11:08:59;13.18;;;3.25;;
41861;SDS011;27537;57.134;-2.136;2022-12-18T11:11:33;16.60;;;5.00;;
41861;SDS011;27537;57.134;-2.136;2022-12-18T11:14:17;23.17;;;6.40;;
41861;SDS011;27537;57.134;-2.136;2022-12-18T11:16:57;13.35;;;4.30;;
41861;SDS011;27537;57.134;-2.136;2022-12-18T11:19:46;13.88;;;3.97;;
41861;SDS011;27537;57.134;-2.136;2022-12-18T11:22:37;16.77;;;5.20;;
41861;SDS011;27537;57.134;-2.136;2022-12-18T11:25:16;20.73;;;5.82;;
41861;SDS011;27537;57.134;-2.136;2022-12-18T11:28:00;19.58;;;4.05;;
41861;SDS011;27537;57.134;-2.136;2022-12-18T11:30:31;14.77;;;3.85;;
41861;SDS011;27537;57.134;-2.136;2022-12-18T11:33:09;20.30;;;4.00;;
41861;SDS011;27537;57.134;-2.136;2022-12-18T11:35:53;12.52;;;3.55;;
41861;SDS011;27537;57.134;-2.136;2022-12-18T11:41:05;18.17;;;3.90;;
41861;SDS011;27537;57.134;-2.136;2022-12-18T11:43:42;15.07;;;3.60;;
41861;SDS011;27537;57.134;-2.136;2022-12-18T11:49:22;17.42;;;3.80;;
41861;SDS011;27537;57.134;-2.136;2022-12-18T11:54:40;15.65;;;3.80;;
41861;SDS011;27537;57.134;-2.136;2022-12-18T12:14:16;13.25;;;3.92;;
41861;SDS011;27537;57.134;-2.136;2022-12-18T12:16:58;14.88;;;2.88;;
41861;SDS011;27537;57.134;-2.136;2022-12-18T12:21:59;16.38;;;4.35;;
41861;SDS011;27537;57.134;-2.136;2022-12-18T12:27:39;14.25;;;3.33;;
41861;SDS011;27537;57.134;-2.136;2022-12-18T12:38:34;17.98;;;3.75;;
41861;SDS011;27537;57.134;-2.136;2022-12-18T12:41:12;28.02;;;4.65;;
41861;SDS011;27537;57.134;-2.136;2022-12-18T12:44:01;15.52;;;3.88;;
41861;SDS011;27537;57.134;-2.136;2022-12-18T12:46:32;11.10;;;2.90;;
41861;SDS011;27537;57.134;-2.136;2022-12-18T12:49:13;17.20;;;4.32;;
41861;SDS011;27537;57.134;-2.136;2022-12-18T12:51:44;16.75;;;4.00;;
41861;SDS011;27537;57.134;-2.136;2022-12-18T12:54:19;18.95;;;4.28;;
41861;SDS011;27537;57.134;-2.136;2022-12-18T12:57:02;16.50;;;4.15;;
41861;SDS011;27537;57.134;-2.136;2022-12-18T13:08:24;20.38;;;5.05;;
41861;SDS011;27537;57.134;-2.136;2022-12-18T13:10:57;19.60;;;5.07;;
41861;SDS011;27537;57.134;-2.136;2022-12-18T13:13:52;27.35;;;5.80;;
41861;SDS011;27537;57.134;-2.136;2022-12-18T13:16:22;20.38;;;5.35;;
41861;SDS011;27537;57.134;-2.136;2022-12-18T13:18:54;17.95;;;4.72;;
41861;SDS011;27537;57.134;-2.136;2022-12-18T13:21:26;24.17;;;5.75;;
41861;SDS011;27537;57.134;-2.136;2022-12-18T13:23:55;17.02;;;5.40;;
41861;SDS011;27537;57.134;-2.136;2022-12-18T13:26:34;16.55;;;4.95;;
41861;SDS011;27537;57.134;-2.136;2022-12-18T13:29:02;22.30;;;5.90;;
41861;SDS011;27537;57.134;-2.136;2022-12-18T13:36:54;26.27;;;8.52;;
41861;SDS011;27537;57.134;-2.136;2022-12-18T13:39:24;19.40;;;6.10;;
41861;SDS011;27537;57.134;-2.136;2022-12-18T13:44:37;23.40;;;7.95;;
41861;SDS011;27537;57.134;-2.136;2022-12-18T13:47:40;20.77;;;7.10;;
41861;SDS011;27537;57.134;-2.136;2022-12-18T13:50:02;19.23;;;7.32;;
41861;SDS011;27537;57.134;-2.136;2022-12-18T13:52:37;22.83;;;6.25;;
41861;SDS011;27537;57.134;-2.136;2022-12-18T13:55:07;19.48;;;6.20;;
41861;SDS011;27537;57.134;-2.136;2022-12-18T13:57:43;19.95;;;7.10;;
41861;SDS011;27537;57.134;-2.136;2022-12-18T14:02:49;18.77;;;6.50;;
41861;SDS011;27537;57.134;-2.136;2022-12-18T14:08:06;26.77;;;6.95;;
41861;SDS011;27537;57.134;-2.136;2022-12-18T14:10:44;16.15;;;6.07;;
41861;SDS011;27537;57.134;-2.136;2022-12-18T14:13:18;19.88;;;6.78;;
41861;SDS011;27537;57.134;-2.136;2022-12-18T14:15:50;16.70;;;6.35;;
41861;SDS011;27537;57.134;-2.136;2022-12-18T14:18:24;23.77;;;8.25;;
41861;SDS011;27537;57.134;-2.136;2022-12-18T14:20:55;20.25;;;6.72;;
41861;SDS011;27537;57.134;-2.136;2022-12-18T14:26:24;23.25;;;6.78;;
41861;SDS011;27537;57.134;-2.136;2022-12-18T14:28:55;17.60;;;6.28;;
41861;SDS011;27537;57.134;-2.136;2022-12-18T14:31:23;18.83;;;4.97;;
41861;SDS011;27537;57.134;-2.136;2022-12-18T14:33:52;23.92;;;6.03;;
41861;SDS011;27537;57.134;-2.136;2022-12-18T14:36:22;23.17;;;7.03;;
41861;SDS011;27537;57.134;-2.136;2022-12-18T14:38:52;24.33;;;6.05;;
41861;SDS011;27537;57.134;-2.136;2022-12-18T14:41:23;17.98;;;4.97;;
41861;SDS011;27537;57.134;-2.136;2022-12-18T14:43:51;15.10;;;4.57;;
41861;SDS011;27537;57.134;-2.136;2022-12-18T14:49:03;21.27;;;5.47;;
41861;SDS011;27537;57.134;-2.136;2022-12-18T14:51:42;15.00;;;4.68;;
41861;SDS011;27537;57.134;-2.136;2022-12-18T14:54:16;24.02;;;5.78;;
41861;SDS011;27537;57.134;-2.136;2022-12-18T14:56:46;20.45;;;5.88;;
41861;SDS011;27537;57.134;-2.136;2022-12-18T14:59:16;15.05;;;4.25;;
41861;SDS011;27537;57.134;-2.136;2022-12-18T15:04:28;20.02;;;4.70;;
41861;SDS011;27537;57.134;-2.136;2022-12-18T15:07:02;19.30;;;5.40;;
41861;SDS011;27537;57.134;-2.136;2022-12-18T15:09:39;31.40;;;11.70;;
41861;SDS011;27537;57.134;-2.136;2022-12-18T15:12:19;36.90;;;16.70;;
41861;SDS011;27537;57.134;-2.136;2022-12-18T15:14:52;21.25;;;8.68;;
41861;SDS011;27537;57.134;-2.136;2022-12-18T15:17:21;23.95;;;7.97;;
41861;SDS011;27537;57.134;-2.136;2022-12-18T15:19:52;26.83;;;6.40;;
41861;SDS011;27537;57.134;-2.136;2022-12-18T15:22:26;30.60;;;6.95;;
41861;SDS011;27537;57.134;-2.136;2022-12-18T15:24:57;23.05;;;6.70;;
41861;SDS011;27537;57.134;-2.136;2022-12-18T15:27:33;21.73;;;5.55;;
41861;SDS011;27537;57.134;-2.136;2022-12-18T15:32:36;18.92;;;4.57;;
41861;SDS011;27537;57.134;-2.136;2022-12-18T15:37:37;25.17;;;4.65;;
41861;SDS011;27537;57.134;-2.136;2022-12-18T15:40:05;23.90;;;5.85;;
41861;SDS011;27537;57.134;-2.136;2022-12-18T15:42:32;21.55;;;4.82;;
41861;SDS011;27537;57.134;-2.136;2022-12-18T15:45:17;29.58;;;5.45;;
41861;SDS011;27537;57.134;-2.136;2022-12-18T15:47:45;23.13;;;5.40;;
41861;SDS011;27537;57.134;-2.136;2022-12-18T15:50:11;22.10;;;5.10;;
41861;SDS011;27537;57.134;-2.136;2022-12-18T15:52:42;17.27;;;4.97;;
41861;SDS011;27537;57.134;-2.136;2022-12-18T15:55:12;14.40;;;4.28;;
41861;SDS011;27537;57.134;-2.136;2022-12-18T15:57:58;22.23;;;5.18;;
41861;SDS011;27537;57.134;-2.136;2022-12-18T16:00:25;22.27;;;4.18;;
41861;SDS011;27537;57.134;-2.136;2022-12-18T16:02:51;17.77;;;4.68;;
41861;SDS011;27537;57.134;-2.136;2022-12-18T16:05:19;24.50;;;5.95;;
41861;SDS011;27537;57.134;-2.136;2022-12-18T16:07:48;18.65;;;5.57;;
41861;SDS011;27537;57.134;-2.136;2022-12-18T16:10:14;26.05;;;5.93;;
41861;SDS011;27537;57.134;-2.136;2022-12-18T16:12:41;20.98;;;6.85;;
41861;SDS011;27537;57.134;-2.136;2022-12-18T16:15:10;21.17;;;8.27;;
41861;SDS011;27537;57.134;-2.136;2022-12-18T16:17:42;17.85;;;5.72;;
41861;SDS011;27537;57.134;-2.136;2022-12-18T16:20:19;19.05;;;4.78;;
41861;SDS011;27537;57.134;-2.136;2022-12-18T16:22:47;23.10;;;4.32;;
41861;SDS011;27537;57.134;-2.136;2022-12-18T16:27:52;24.20;;;4.50;;
41861;SDS011;27537;57.134;-2.136;2022-12-18T16:30:22;24.98;;;6.30;;
41861;SDS011;27537;57.134;-2.136;2022-12-18T16:32:53;24.25;;;5.57;;
41861;SDS011;27537;57.134;-2.136;2022-12-18T16:35:21;18.35;;;3.90;;
41861;SDS011;27537;57.134;-2.136;2022-12-18T16:37:47;28.60;;;5.65;;
41861;SDS011;27537;57.134;-2.136;2022-12-18T16:40:15;23.23;;;6.60;;
41861;SDS011;27537;57.134;-2.136;2022-12-18T16:42:43;21.55;;;4.80;;
41861;SDS011;27537;57.134;-2.136;2022-12-18T16:45:13;26.38;;;5.07;;
41861;SDS011;27537;57.134;-2.136;2022-12-18T16:47:41;22.30;;;5.82;;
41861;SDS011;27537;57.134;-2.136;2022-12-18T16:50:09;26.05;;;5.30;;
41861;SDS011;27537;57.134;-2.136;2022-12-18T16:52:36;18.75;;;5.00;;
41861;SDS011;27537;57.134;-2.136;2022-12-18T16:55:03;20.52;;;4.50;;
41861;SDS011;27537;57.134;-2.136;2022-12-18T16:57:30;22.38;;;5.32;;
41861;SDS011;27537;57.134;-2.136;2022-12-18T16:59:57;18.92;;;4.53;;
41861;SDS011;27537;57.134;-2.136;2022-12-18T17:02:30;23.08;;;6.35;;
41861;SDS011;27537;57.134;-2.136;2022-12-18T17:04:57;23.73;;;5.82;;
41861;SDS011;27537;57.134;-2.136;2022-12-18T17:07:25;24.40;;;6.07;;